createdAt,value
2022-08-08T00:00:50.668Z,94.90
2022-08-08T00:02:33.266Z,94.90
2022-08-08T00:05:43.463Z,94.70
2022-08-08T00:08:27.178Z,95.00
2022-08-08T00:11:07.859Z,95.20
2022-08-08T00:14:15.788Z,95.00
2022-08-08T00:17:23.015Z,95.20
2022-08-08T00:20:05.414Z,95.20
2022-08-08T00:22:55.796Z,94.90
2022-08-08T00:25:44.790Z,95.00
2022-08-08T00:28:34.888Z,95.40
2022-08-08T00:32:16.080Z,95.60
2022-08-08T00:35:07.533Z,95.70
2022-08-08T00:37:48.015Z,95.90
2022-08-08T00:41:06.708Z,96.20
2022-08-08T00:43:21.464Z,96.20
2022-08-08T00:46:16.614Z,96.30
2022-08-08T00:49:04.514Z,96.40
2022-08-08T00:52:01.034Z,96.60
2022-08-08T00:54:46.454Z,96.80
2022-08-08T00:57:57.022Z,97.00
2022-08-08T01:00:28.933Z,97.30
2022-08-08T01:04:02.155Z,97.00
2022-08-08T01:07:00.245Z,97.10
2022-08-08T01:09:43.735Z,97.30
2022-08-08T01:12:53.153Z,97.30
2022-08-08T01:15:47.315Z,97.40
2022-08-08T01:18:52.512Z,97.40
2022-08-08T01:22:09.992Z,97.40
2022-08-08T01:25:16.680Z,97.50
2022-08-08T01:28:11.636Z,97.80
2022-08-08T01:31:05.913Z,98.00
2022-08-08T01:34:05.186Z,98.00
2022-08-08T01:37:13.873Z,98.30
2022-08-08T01:40:32.628Z,98.50
2022-08-08T01:43:20.399Z,98.40
2022-08-08T01:46:27.152Z,98.10
2022-08-08T01:49:22.904Z,98.00
2022-08-08T01:53:06.544Z,98.00
2022-08-08T01:56:26.095Z,97.90
2022-08-08T01:58:39.721Z,98.10
2022-08-08T02:01:36.025Z,98.10
2022-08-08T02:04:25.769Z,98.10
2022-08-08T02:07:01.859Z,98.30
2022-08-08T02:10:03.945Z,98.40
2022-08-08T02:12:57.729Z,98.30
2022-08-08T02:15:41.245Z,98.20
2022-08-08T02:18:33.986Z,98.20
2022-08-08T02:21:28.545Z,98.30
2022-08-08T02:24:09.253Z,98.50
2022-08-08T02:26:58.086Z,98.60
2022-08-08T02:29:59.352Z,98.80
2022-08-08T02:32:28.380Z,99.00
2022-08-08T02:35:22.828Z,99.10
2022-08-08T02:37:52.904Z,99.30
2022-08-08T02:40:45.003Z,99.20
2022-08-08T02:44:38.104Z,99.20
2022-08-08T02:46:50.554Z,99.30
2022-08-08T02:49:27.675Z,99.30
2022-08-08T02:52:38.304Z,99.50
2022-08-08T02:55:26.687Z,99.80
2022-08-08T02:58:26.774Z,99.90
2022-08-08T03:01:02.948Z,99.90
2022-08-08T03:05:02.330Z,99.90
2022-08-08T03:06:59.973Z,99.90
2022-08-08T03:09:45.551Z,99.90
2022-08-08T03:12:36.508Z,99.90
2022-08-08T03:15:56.875Z,99.90
2022-08-08T03:18:33.608Z,99.90
2022-08-08T03:21:01.781Z,99.90
2022-08-08T03:23:56.196Z,99.90
2022-08-08T03:26:31.167Z,99.90
2022-08-08T03:29:04.016Z,99.90
2022-08-08T03:32:06.163Z,99.90
2022-08-08T03:34:35.049Z,99.90
2022-08-08T03:37:20.023Z,99.90
2022-08-08T03:39:52.112Z,99.90
2022-08-08T03:42:30.517Z,99.90
2022-08-08T03:44:58.066Z,99.90
2022-08-08T03:47:39.487Z,99.90
2022-08-08T03:50:20.023Z,99.90
2022-08-08T03:52:47.077Z,99.90
2022-08-08T03:55:20.199Z,99.90
2022-08-08T03:58:34.813Z,99.90
2022-08-08T04:01:01.618Z,99.90
2022-08-08T04:04:00.278Z,99.90
2022-08-08T04:06:29.364Z,99.90
2022-08-08T04:08:58.093Z,99.90
2022-08-08T04:11:58.273Z,99.90
2022-08-08T04:14:34.566Z,99.90
2022-08-08T04:17:04.269Z,99.90
2022-08-08T04:19:36.687Z,99.90
2022-08-08T04:22:04.400Z,99.90
2022-08-08T04:24:31.777Z,99.90
2022-08-08T04:26:59.804Z,99.90
2022-08-08T04:29:36.992Z,99.90
2022-08-08T04:32:10.501Z,99.90
2022-08-08T04:34:49.315Z,99.90
2022-08-08T04:37:31.604Z,99.90
2022-08-08T04:40:05.152Z,99.90
2022-08-08T04:42:34.869Z,99.90
2022-08-08T04:45:05.308Z,99.90
2022-08-08T04:47:32.151Z,99.90
2022-08-08T04:50:05.081Z,99.90
2022-08-08T04:52:35.219Z,99.90
2022-08-08T04:55:04.331Z,99.90
2022-08-08T04:57:34.310Z,99.90
2022-08-08T05:00:02.301Z,99.90
2022-08-08T05:02:30.897Z,99.90
2022-08-08T05:04:59.203Z,99.90
2022-08-08T05:07:35.308Z,99.90
2022-08-08T05:10:12.500Z,99.90
2022-08-08T05:12:53.643Z,99.90
2022-08-08T05:16:48.250Z,99.90
2022-08-08T05:18:14.178Z,99.90
2022-08-08T05:20:48.288Z,99.90
2022-08-08T05:23:16.758Z,99.90
2022-08-08T05:25:43.620Z,99.90
2022-08-08T05:28:14.862Z,99.90
2022-08-08T05:30:47.111Z,99.90
2022-08-08T05:33:14.552Z,99.90
2022-08-08T05:35:45.178Z,99.90
2022-08-08T05:38:31.991Z,99.90
2022-08-08T05:41:03.569Z,99.90
2022-08-08T05:43:39.435Z,99.90
2022-08-08T05:46:20.691Z,99.90
2022-08-08T05:48:52.070Z,99.90
2022-08-08T05:51:20.354Z,99.90
2022-08-08T05:54:24.995Z,99.90
2022-08-08T05:56:47.734Z,99.80
2022-08-08T05:59:59.303Z,99.60
2022-08-08T06:02:44.094Z,99.40
2022-08-08T06:05:24.295Z,98.90
2022-08-08T06:08:02.454Z,98.60
2022-08-08T06:10:32.544Z,98.40
2022-08-08T06:13:01.017Z,98.10
2022-08-08T06:15:49.869Z,97.70
2022-08-08T06:18:21.952Z,97.60
2022-08-08T06:20:56.432Z,96.60
2022-08-08T06:23:52.825Z,96.20
2022-08-08T06:26:38.490Z,95.90
2022-08-08T06:29:26.417Z,95.20
2022-08-08T06:32:10.860Z,94.70
2022-08-08T06:35:11.573Z,93.80
2022-08-08T06:37:39.996Z,93.80
2022-08-08T06:40:14.287Z,93.30
2022-08-08T06:43:05.077Z,92.50
2022-08-08T06:45:34.184Z,92.30
2022-08-08T06:48:02.341Z,92.00
2022-08-08T06:50:33.815Z,91.70
2022-08-08T06:53:10.099Z,91.20
2022-08-08T06:55:47.183Z,90.00
2022-08-08T06:58:20.254Z,89.10
2022-08-08T07:00:50.190Z,89.20
2022-08-08T07:03:52.073Z,88.50
2022-08-08T07:06:22.641Z,87.00
2022-08-08T07:08:58.402Z,86.10
2022-08-08T07:11:30.591Z,85.70
2022-08-08T07:14:19.298Z,84.10
2022-08-08T07:16:50.109Z,83.40
2022-08-08T07:19:55.969Z,82.70
2022-08-08T07:22:45.940Z,81.70
2022-08-08T07:25:19.234Z,80.60
2022-08-08T07:28:02.320Z,81.00
2022-08-08T07:30:34.643Z,79.60
2022-08-08T07:33:01.634Z,77.70
2022-08-08T07:35:30.987Z,78.00
2022-08-08T07:38:09.765Z,76.60
2022-08-08T07:40:40.921Z,75.70
2022-08-08T07:43:12.055Z,75.70
2022-08-08T07:46:05.686Z,75.80
2022-08-08T07:48:30.015Z,75.30
2022-08-08T07:51:00.786Z,73.40
2022-08-08T07:54:00.737Z,72.00
2022-08-08T07:56:35.828Z,72.10
2022-08-08T07:59:10.964Z,70.70
2022-08-08T08:02:34.282Z,67.80
2022-08-08T08:04:41.188Z,66.10
2022-08-08T08:07:08.895Z,66.30
2022-08-08T08:09:41.751Z,65.40
2022-08-08T08:12:14.404Z,61.90
2022-08-08T08:15:04.995Z,58.40
2022-08-08T08:17:44.957Z,57.00
2022-08-08T08:20:16.343Z,58.10
2022-08-08T08:22:43.616Z,53.60
2022-08-08T08:25:10.717Z,50.10
2022-08-08T08:27:37.519Z,51.60
2022-08-08T08:30:07.485Z,52.80
2022-08-08T08:32:36.541Z,52.80
2022-08-08T08:35:09.842Z,49.20
2022-08-08T08:37:53.065Z,49.70
2022-08-08T08:40:25.246Z,50.80
2022-08-08T08:42:53.614Z,49.10
2022-08-08T08:45:23.340Z,48.00
2022-08-08T08:47:54.026Z,46.00
2022-08-08T08:50:32.817Z,46.30
2022-08-08T08:53:54.405Z,43.10
2022-08-08T08:56:01.166Z,43.20
2022-08-08T08:58:41.515Z,43.20
2022-08-08T09:01:13.541Z,44.50
2022-08-08T09:03:51.418Z,46.70
2022-08-08T09:06:34.155Z,47.80
2022-08-08T09:09:25.989Z,50.20
2022-08-08T09:12:07.561Z,52.10
2022-08-08T09:14:35.462Z,51.00
2022-08-08T09:17:11.563Z,50.00
2022-08-08T09:22:02.950Z,49.80
2022-08-08T09:22:31.350Z,49.20
2022-08-08T09:24:58.505Z,47.90
2022-08-08T09:27:55.965Z,46.40
2022-08-08T09:30:17.730Z,45.20
2022-08-08T09:33:12.790Z,45.10
2022-08-08T09:35:57.848Z,44.70
2022-08-08T09:38:54.191Z,43.60
2022-08-08T09:42:14.749Z,44.30
2022-08-08T09:44:39.842Z,44.50
2022-08-08T09:48:02.137Z,45.30
2022-08-08T09:50:01.789Z,45.10
2022-08-08T09:52:58.513Z,44.40
2022-08-08T09:55:51.235Z,43.50
2022-08-08T09:58:27.586Z,42.20
2022-08-08T10:01:15.426Z,41.60
2022-08-08T10:04:02.119Z,41.70
2022-08-08T10:06:35.521Z,39.80
2022-08-08T10:09:03.269Z,40.20
2022-08-08T10:12:27.745Z,39.60
2022-08-08T10:14:28.293Z,38.80
2022-08-08T10:18:03.533Z,38.50
2022-08-08T10:20:04.308Z,39.00
2022-08-08T10:22:33.796Z,38.40
2022-08-08T10:25:07.156Z,37.10
2022-08-08T10:27:45.298Z,37.20
2022-08-08T10:30:57.377Z,37.10
2022-08-08T10:33:12.342Z,35.60
2022-08-08T10:36:08.502Z,35.30
2022-08-08T10:38:32.100Z,33.60
2022-08-08T10:41:03.598Z,33.50
2022-08-08T10:43:43.084Z,33.80
2022-08-08T10:46:30.334Z,33.80
2022-08-08T10:48:59.328Z,33.80
2022-08-08T10:51:31.242Z,34.40
2022-08-08T10:54:07.857Z,35.10
2022-08-08T10:56:36.179Z,36.60
2022-08-08T10:59:12.123Z,37.20
2022-08-08T11:01:49.452Z,38.20
2022-08-08T11:04:29.281Z,39.10
2022-08-08T11:07:01.011Z,39.70
2022-08-08T11:09:32.402Z,40.10
2022-08-08T11:12:05.160Z,39.90
2022-08-08T11:14:52.070Z,40.00
2022-08-08T11:18:00.119Z,40.70
2022-08-08T11:20:14.253Z,40.00
2022-08-08T11:22:51.046Z,39.10
2022-08-08T11:25:43.681Z,37.90
2022-08-08T11:28:14.412Z,37.30
2022-08-08T11:30:50.470Z,36.30
2022-08-08T11:33:35.299Z,35.70
2022-08-08T11:36:15.198Z,35.00
2022-08-08T11:38:54.297Z,34.50
2022-08-08T11:41:27.874Z,34.20
2022-08-08T11:44:00.908Z,33.60
2022-08-08T11:46:31.414Z,33.10
2022-08-08T11:49:01.493Z,32.70
2022-08-08T11:51:39.753Z,32.60
2022-08-08T11:54:31.411Z,32.70
2022-08-08T11:57:18.490Z,33.70
2022-08-08T12:00:02.886Z,34.70
2022-08-08T12:02:45.300Z,35.80
2022-08-08T12:05:13.398Z,35.50
2022-08-08T12:07:58.906Z,34.60
2022-08-08T12:10:27.736Z,34.20
2022-08-08T12:13:12.153Z,34.10
2022-08-08T12:15:49.383Z,32.60
2022-08-08T12:18:25.451Z,32.40
2022-08-08T12:20:55.018Z,31.70
2022-08-08T12:23:59.235Z,31.20
2022-08-08T12:26:45.622Z,32.20
2022-08-08T12:29:41.976Z,32.90
2022-08-08T12:32:31.156Z,33.90
2022-08-08T12:35:13.716Z,34.30
2022-08-08T12:37:48.182Z,34.40
2022-08-08T12:40:54.038Z,33.70
2022-08-08T12:43:32.838Z,33.30
2022-08-08T12:46:19.420Z,33.80
2022-08-08T12:51:58.691Z,33.10
2022-08-08T12:54:35.890Z,33.90
2022-08-08T12:57:32.818Z,33.70
2022-08-08T13:00:34.078Z,32.70
2022-08-08T13:03:07.430Z,31.50
2022-08-08T13:06:04.057Z,31.10
2022-08-08T13:08:21.934Z,29.80
2022-08-08T13:10:58.318Z,29.20
2022-08-08T13:13:37.965Z,29.80
2022-08-08T13:16:25.513Z,30.10
2022-08-08T13:19:00.567Z,30.00
2022-08-08T13:21:49.015Z,29.90
2022-08-08T13:24:18.688Z,30.00
2022-08-08T13:27:14.861Z,30.60
2022-08-08T13:30:03.679Z,31.30
2022-08-08T13:32:36.323Z,31.20
2022-08-08T13:35:24.474Z,31.30
2022-08-08T13:38:06.526Z,31.40
2022-08-08T13:40:35.239Z,32.10
2022-08-08T13:43:03.954Z,32.20
2022-08-08T13:45:31.621Z,31.80
2022-08-08T13:48:02.991Z,32.00
2022-08-08T13:50:50.313Z,32.60
2022-08-08T13:53:34.049Z,31.20
2022-08-08T13:56:07.053Z,31.30
2022-08-08T13:58:56.541Z,30.70
2022-08-08T14:01:32.748Z,30.30
2022-08-08T14:04:20.091Z,30.00
2022-08-08T14:06:47.853Z,30.70
2022-08-08T14:09:25.585Z,30.80
2022-08-08T14:12:00.426Z,30.90
2022-08-08T14:14:40.651Z,31.00
2022-08-08T14:17:22.024Z,30.90
2022-08-08T14:19:57.275Z,30.10
2022-08-08T14:22:37.456Z,29.30
2022-08-08T14:25:07.872Z,29.20
2022-08-08T14:27:43.514Z,29.00
2022-08-08T14:30:33.789Z,29.30
2022-08-08T14:33:00.782Z,29.70
2022-08-08T14:35:35.979Z,28.30
2022-08-08T14:38:51.566Z,27.90
2022-08-08T14:40:58.837Z,28.30
2022-08-08T14:44:02.113Z,28.10
2022-08-08T14:46:32.641Z,28.30
2022-08-08T14:49:31.806Z,28.20
2022-08-08T14:52:10.923Z,28.10
2022-08-08T14:54:48.879Z,28.20
2022-08-08T14:57:16.637Z,28.40
2022-08-08T14:59:51.459Z,28.40
2022-08-08T15:02:25.610Z,27.30
2022-08-08T15:04:57.823Z,26.60
2022-08-08T15:07:40.326Z,26.40
2022-08-08T15:10:10.673Z,25.40
2022-08-08T15:12:41.075Z,26.20
2022-08-08T15:15:09.878Z,27.80
2022-08-08T15:17:37.928Z,29.40
2022-08-08T15:20:12.497Z,30.60
2022-08-08T15:22:42.273Z,29.10
2022-08-08T15:25:17.344Z,27.60
2022-08-08T15:28:04.652Z,25.80
2022-08-08T15:30:32.059Z,24.20
2022-08-08T15:32:59.475Z,23.10
2022-08-08T15:35:27.286Z,22.90
2022-08-08T15:37:56.857Z,22.80
2022-08-08T15:40:23.584Z,22.30
2022-08-08T15:42:55.842Z,22.10
2022-08-08T15:45:22.818Z,22.00
2022-08-08T15:48:10.984Z,21.70
2022-08-08T15:50:56.741Z,20.90
2022-08-08T15:53:28.237Z,19.90
2022-08-08T15:56:12.322Z,20.40
2022-08-08T15:58:45.925Z,21.70
2022-08-08T16:01:16.097Z,21.40
2022-08-08T16:03:42.945Z,20.70
2022-08-08T16:06:13.699Z,21.20
2022-08-08T16:13:00.398Z,20.70
2022-08-08T16:13:14.551Z,20.60
2022-08-08T16:14:15.773Z,19.90
2022-08-08T16:16:43.517Z,19.90
2022-08-08T16:19:23.446Z,18.90
2022-08-08T16:21:53.988Z,18.60
2022-08-08T16:24:24.504Z,18.60
2022-08-08T16:26:51.346Z,19.00
2022-08-08T16:29:23.778Z,19.20
2022-08-08T16:32:11.200Z,18.90
2022-08-08T16:34:40.643Z,21.20
2022-08-08T16:37:08.748Z,21.00
2022-08-08T16:40:00.569Z,20.60
2022-08-08T16:42:25.121Z,19.60
2022-08-08T16:44:54.062Z,18.80
2022-08-08T16:47:40.573Z,18.30
2022-08-08T16:50:14.126Z,18.00
2022-08-08T16:55:03.981Z,17.90
2022-08-08T16:55:55.033Z,17.70
2022-08-08T16:58:25.370Z,17.40
2022-08-08T17:00:52.950Z,17.70
2022-08-08T17:03:24.792Z,17.20
2022-08-08T17:06:02.124Z,17.70
2022-08-08T17:08:29.162Z,18.70
2022-08-08T17:10:58.579Z,19.60
2022-08-08T17:14:01.186Z,20.20
2022-08-08T17:16:29.189Z,20.70
2022-08-08T17:18:56.695Z,21.20
2022-08-08T17:21:26.277Z,20.60
2022-08-08T17:24:01.985Z,20.20
2022-08-08T17:26:33.128Z,20.00
2022-08-08T17:29:03.940Z,19.80
2022-08-08T17:31:43.586Z,19.50
2022-08-08T17:34:48.660Z,19.20
2022-08-08T17:37:06.759Z,19.70
2022-08-08T17:40:03.244Z,19.30
2022-08-08T17:42:25.746Z,19.10
2022-08-08T17:44:53.172Z,19.10
2022-08-08T17:47:37.465Z,19.50
2022-08-08T17:50:06.932Z,19.70
2022-08-08T17:52:35.599Z,20.00
2022-08-08T17:56:07.813Z,20.10
2022-08-08T17:57:52.761Z,20.20
2022-08-08T18:00:25.830Z,20.10
2022-08-08T18:03:07.642Z,20.20
2022-08-08T18:05:48.696Z,20.00
2022-08-08T18:08:37.653Z,20.20
2022-08-08T18:11:16.052Z,20.50
2022-08-08T18:13:47.670Z,20.80
2022-08-08T18:16:23.685Z,21.20
2022-08-08T18:18:56.605Z,21.10
2022-08-08T18:21:59.312Z,21.90
2022-08-08T18:24:22.024Z,22.30
2022-08-08T18:26:54.422Z,22.50
2022-08-08T18:29:29.766Z,22.80
2022-08-08T18:32:00.380Z,24.00
2022-08-08T18:34:32.912Z,23.40
2022-08-08T18:37:02.951Z,23.90
2022-08-08T18:39:36.373Z,24.70
2022-08-08T18:42:04.590Z,25.30
2022-08-08T18:44:34.774Z,25.80
2022-08-08T18:47:03.336Z,26.50
2022-08-08T18:49:32.332Z,27.40
2022-08-08T18:52:22.285Z,28.20
2022-08-08T18:54:59.567Z,29.40
2022-08-08T18:57:36.927Z,31.80
2022-08-08T19:00:15.894Z,34.60
2022-08-08T19:02:48.185Z,36.30
2022-08-08T19:05:30.645Z,39.10
2022-08-08T19:08:10.111Z,42.30
2022-08-08T19:10:51.099Z,47.60
2022-08-08T19:13:21.394Z,51.60
2022-08-08T19:15:51.955Z,54.10
2022-08-08T19:18:32.950Z,55.90
2022-08-08T19:21:28.820Z,58.30
2022-08-08T19:23:57.155Z,60.00
2022-08-08T19:26:30.616Z,62.00
2022-08-08T19:28:59.386Z,62.80
2022-08-08T19:31:31.632Z,63.20
2022-08-08T19:34:35.786Z,63.00
2022-08-08T19:36:52.360Z,63.60
2022-08-08T19:39:19.569Z,64.60
2022-08-08T19:41:49.881Z,65.70
2022-08-08T19:44:42.981Z,67.50
2022-08-08T19:47:04.290Z,68.10
2022-08-08T19:49:37.585Z,69.00
2022-08-08T19:52:10.458Z,69.50
2022-08-08T19:54:40.409Z,70.10
2022-08-08T19:57:14.476Z,70.60
2022-08-08T19:59:43.905Z,70.90
2022-08-08T20:02:11.562Z,71.30
2022-08-08T20:04:41.599Z,72.10
2022-08-08T20:08:27.917Z,72.60
2022-08-08T20:10:00.201Z,73.00
2022-08-08T20:12:34.496Z,73.50
2022-08-08T20:15:16.729Z,74.00
2022-08-08T20:17:48.156Z,74.40
2022-08-08T20:20:19.094Z,74.90
2022-08-08T20:22:52.436Z,75.80
2022-08-08T20:25:20.847Z,76.30
2022-08-08T20:27:50.402Z,76.80
2022-08-08T20:30:52.373Z,77.40
2022-08-08T20:33:19.751Z,78.20
2022-08-08T20:35:59.064Z,78.40
2022-08-08T20:38:37.091Z,79.10
2022-08-08T20:41:16.998Z,79.80
2022-08-08T20:43:49.698Z,80.50
2022-08-08T20:46:20.639Z,81.50
2022-08-08T20:48:48.301Z,81.80
2022-08-08T20:51:15.031Z,81.90
2022-08-08T20:53:58.175Z,82.90
2022-08-08T20:56:35.611Z,82.90
2022-08-08T20:59:09.234Z,83.30
2022-08-08T21:01:44.165Z,83.70
2022-08-08T21:04:23.510Z,84.20
2022-08-08T21:06:54.374Z,84.70
2022-08-08T21:09:21.859Z,84.90
2022-08-08T21:11:51.506Z,85.40
2022-08-08T21:14:33.581Z,85.40
2022-08-08T21:17:06.770Z,86.10
2022-08-08T21:19:45.216Z,87.00
2022-08-08T21:22:14.370Z,87.50
2022-08-08T21:24:52.270Z,88.40
2022-08-08T21:28:05.778Z,89.40
2022-08-08T21:30:18.998Z,89.50
2022-08-08T21:32:52.133Z,89.50
2022-08-08T21:36:13.702Z,89.80
2022-08-08T21:38:16.224Z,89.80
2022-08-08T21:40:56.414Z,90.10
2022-08-08T21:43:33.627Z,90.10
2022-08-08T21:48:04.452Z,90.40
2022-08-08T21:48:51.800Z,90.50
2022-08-08T21:51:45.834Z,90.70
2022-08-08T21:54:27.116Z,90.60
2022-08-08T21:56:56.660Z,90.60
2022-08-08T21:59:26.656Z,90.70
2022-08-08T22:02:10.816Z,90.70
2022-08-08T22:04:42.149Z,91.00
2022-08-08T22:07:08.898Z,91.30
2022-08-08T22:09:40.902Z,91.40
2022-08-08T22:12:15.105Z,91.70
2022-08-08T22:14:44.791Z,91.80
2022-08-08T22:17:18.229Z,91.80
2022-08-08T22:20:10.515Z,92.10
2022-08-08T22:22:38.182Z,92.20
2022-08-08T22:25:17.842Z,92.30
2022-08-08T22:28:02.567Z,92.50
2022-08-08T22:30:33.566Z,92.60
2022-08-08T22:33:01.404Z,92.80
2022-08-08T22:36:05.360Z,93.00
2022-08-08T22:38:17.632Z,93.00
2022-08-08T22:40:45.112Z,93.00
2022-08-08T22:43:15.814Z,93.10
2022-08-08T22:45:46.628Z,93.30
2022-08-08T22:48:21.710Z,93.60
2022-08-08T22:50:48.833Z,94.00
2022-08-08T22:54:28.463Z,94.20
2022-08-08T22:56:03.047Z,94.40
2022-08-08T22:58:33.027Z,94.50
2022-08-08T23:01:26.891Z,94.50
2022-08-08T23:03:55.849Z,94.70
2022-08-08T23:06:25.010Z,94.70
2022-08-08T23:08:55.321Z,94.80
2022-08-08T23:11:58.064Z,94.80
2022-08-08T23:14:15.271Z,94.90
2022-08-08T23:16:46.274Z,95.20
2022-08-08T23:19:16.244Z,95.40
2022-08-08T23:21:47.095Z,95.50
2022-08-08T23:24:22.574Z,95.60
2022-08-08T23:26:53.033Z,95.70
2022-08-08T23:29:23.327Z,95.80
2022-08-08T23:31:50.035Z,96.00
2022-08-08T23:34:19.542Z,95.90
2022-08-08T23:36:47.696Z,96.10
2022-08-08T23:39:15.656Z,96.10
2022-08-08T23:41:46.938Z,96.20
2022-08-08T23:44:18.626Z,96.20
2022-08-08T23:49:03.213Z,96.30
2022-08-08T23:49:36.663Z,96.20
2022-08-08T23:52:07.904Z,96.00
2022-08-08T23:54:43.638Z,96.10
2022-08-08T23:57:26.600Z,96.20
